Time;durP1;ratioP1;P1;durP2;ratioP2;P2;SDS_P1;SDS_P2;PMS_P1;PMS_P2;Temp;Humidity;BMP_temperature;BMP_pressure;BME280_temperature;BME280_humidity;BME280_pressure;Samples;Min_cycle;Max_cycle;Signal;HPM_P1;HPM_P2
2023/11/20 00:00:52;;;;;;;221.67;55.60;;;;;;;;;;5025230;28;20468;-43
2023/11/20 00:03:18;;;;;;;222.20;57.77;;;;;;;;;;5019595;28;20421;-44
2023/11/20 00:05:44;;;;;;;218.07;57.03;;;;;;;;;;5025537;28;20426;-44
2023/11/20 00:08:10;;;;;;;221.80;56.40;;;;;;;;;;5021213;28;20495;-44
2023/11/20 00:10:38;;;;;;;219.13;59.50;;;;;;;;;;5021017;28;20538;-45
2023/11/20 00:13:06;;;;;;;201.10;54.30;;;;;;;;;;5021751;28;20533;-45
2023/11/20 00:15:32;;;;;;;176.00;51.33;;;;;;;;;;5024861;28;20179;-44
2023/11/20 00:17:58;;;;;;;215.48;57.42;;;;;;;;;;5024115;28;20210;-44
2023/11/20 00:20:24;;;;;;;224.40;59.65;;;;;;;;;;5017920;28;20579;-44
2023/11/20 00:22:50;;;;;;;221.60;57.85;;;;;;;;;;5017540;28;20552;-45
2023/11/20 00:25:16;;;;;;;222.73;59.27;;;;;;;;;;5023063;28;20188;-44
2023/11/20 00:27:43;;;;;;;223.00;60.47;;;;;;;;;;5023414;28;20793;-45
2023/11/20 00:30:09;;;;;;;223.30;58.33;;;;;;;;;;5022045;28;20435;-44
2023/11/20 00:32:35;;;;;;;223.20;58.67;;;;;;;;;;5022831;28;20561;-45
2023/11/20 00:35:01;;;;;;;219.77;59.80;;;;;;;;;;5022576;28;20179;-44
2023/11/20 00:37:27;;;;;;;220.13;55.42;;;;;;;;;;5016557;28;20435;-44
2023/11/20 00:39:53;;;;;;;219.20;55.03;;;;;;;;;;5023880;28;20207;-45
2023/11/20 00:42:19;;;;;;;221.43;57.90;;;;;;;;;;5020821;28;20414;-45
2023/11/20 00:44:45;;;;;;;219.17;56.47;;;;;;;;;;5021269;28;20468;-45
2023/11/20 00:47:11;;;;;;;220.25;57.08;;;;;;;;;;5021767;28;20968;-45
2023/11/20 00:49:38;;;;;;;223.18;60.90;;;;;;;;;;5020646;28;20185;-45
2023/11/20 00:52:04;;;;;;;221.50;57.83;;;;;;;;;;5020630;28;20266;-45
2023/11/20 00:54:30;;;;;;;221.13;56.78;;;;;;;;;;5020091;28;20311;-44
2023/11/20 00:56:56;;;;;;;220.77;57.20;;;;;;;;;;5024144;28;20673;-45
2023/11/20 00:59:22;;;;;;;221.03;56.70;;;;;;;;;;5018854;28;20458;-45
2023/11/20 01:01:48;;;;;;;221.00;56.75;;;;;;;;;;5018847;28;20421;-44
2023/11/20 01:04:14;;;;;;;222.63;57.53;;;;;;;;;;5020516;28;20177;-44
2023/11/20 01:06:40;;;;;;;224.23;58.67;;;;;;;;;;5020728;28;20426;-45
2023/11/20 01:09:06;;;;;;;224.67;60.97;;;;;;;;;;5021029;28;20416;-45
2023/11/20 01:11:33;;;;;;;201.60;54.67;;;;;;;;;;5024312;28;20399;-45
2023/11/20 01:14:01;;;;;;;220.80;56.70;;;;;;;;;;5023642;28;20637;-45
2023/11/20 01:16:27;;;;;;;224.20;59.15;;;;;;;;;;5017381;28;20196;-44
2023/11/20 01:18:54;;;;;;;227.30;63.63;;;;;;;;;;5016885;28;20211;-44
2023/11/20 01:21:20;;;;;;;223.15;60.08;;;;;;;;;;5022651;28;20184;-45
2023/11/20 01:23:46;;;;;;;221.43;58.10;;;;;;;;;;5022212;28;20727;-45
2023/11/20 01:26:12;;;;;;;223.43;59.97;;;;;;;;;;5021520;28;20196;-44
2023/11/20 01:28:39;;;;;;;223.93;60.22;;;;;;;;;;5021428;28;20470;-45
2023/11/20 01:31:05;;;;;;;220.52;57.40;;;;;;;;;;5021852;28;20613;-44
2023/11/20 01:33:31;;;;;;;222.10;57.88;;;;;;;;;;5016403;28;20229;-45
2023/11/20 01:35:57;;;;;;;226.37;63.13;;;;;;;;;;5022877;28;20584;-45
2023/11/20 01:38:23;;;;;;;222.20;57.72;;;;;;;;;;5020270;28;20416;-45
2023/11/20 01:40:53;;;;;;;223.80;59.80;;;;;;;;;;5020092;28;20204;-45
2023/11/20 01:43:19;;;;;;;223.27;57.25;;;;;;;;;;5021792;28;20404;-45
2023/11/20 01:45:45;;;;;;;222.37;57.87;;;;;;;;;;5019580;28;20260;-45
2023/11/20 01:48:11;;;;;;;226.00;62.67;;;;;;;;;;5020068;28;20763;-45
2023/11/20 01:50:37;;;;;;;224.10;60.30;;;;;;;;;;5019654;28;20190;-45
2023/11/20 01:53:04;;;;;;;220.97;56.50;;;;;;;;;;5025154;28;20414;-44
2023/11/20 01:55:31;;;;;;;223.55;59.97;;;;;;;;;;5019258;28;20462;-45
2023/11/20 01:57:58;;;;;;;224.45;59.72;;;;;;;;;;5017227;28;20241;-44
2023/11/20 02:00:24;;;;;;;219.15;55.40;;;;;;;;;;5020007;28;20211;-45
2023/11/20 02:02:50;;;;;;;221.63;57.22;;;;;;;;;;5018949;28;20272;-44
2023/11/20 02:05:16;;;;;;;222.25;56.55;;;;;;;;;;5026361;28;20173;-45
2023/11/20 02:07:42;;;;;;;223.47;60.47;;;;;;;;;;5021490;28;20255;-44
2023/11/20 02:10:08;;;;;;;222.77;57.78;;;;;;;;;;5027082;28;20416;-45
2023/11/20 02:12:35;;;;;;;220.45;55.95;;;;;;;;;;5022116;28;20615;-45
2023/11/20 02:15:01;;;;;;;221.70;57.28;;;;;;;;;;5019024;28;20232;-45
2023/11/20 02:17:27;;;;;;;227.25;61.45;;;;;;;;;;5022309;28;20212;-44
2023/11/20 02:19:53;;;;;;;222.07;56.80;;;;;;;;;;5020861;28;20191;-45
2023/11/20 02:22:19;;;;;;;222.65;58.33;;;;;;;;;;5015509;28;20487;-45
2023/11/20 02:24:46;;;;;;;221.83;58.57;;;;;;;;;;5029700;28;20261;-45
2023/11/20 02:27:26;;;;;;;221.98;57.88;;;;;;;;;;5023818;28;20439;-44
2023/11/20 02:29:53;;;;;;;222.68;58.90;;;;;;;;;;5023450;28;20195;-45
2023/11/20 02:32:19;;;;;;;224.27;60.35;;;;;;;;;;5030507;28;20176;-45
2023/11/20 02:34:45;;;;;;;220.70;58.67;;;;;;;;;;5015340;28;20180;-46
2023/11/20 02:37:11;;;;;;;225.20;62.30;;;;;;;;;;5034401;28;20190;-45
2023/11/20 02:39:40;;;;;;;222.60;58.95;;;;;;;;;;5018207;28;20916;-45
2023/11/20 02:42:10;;;;;;;224.82;61.72;;;;;;;;;;5027315;28;20174;-45
2023/11/20 02:44:40;;;;;;;222.63;59.75;;;;;;;;;;5025320;28;20210;-45
2023/11/20 02:47:09;;;;;;;221.80;57.88;;;;;;;;;;5019868;28;20198;-45
2023/11/20 02:49:35;;;;;;;224.02;58.58;;;;;;;;;;5032590;28;20237;-45
2023/11/20 02:52:10;;;;;;;222.27;57.00;;;;;;;;;;5014761;28;20181;-45
2023/11/20 02:54:36;;;;;;;223.73;59.97;;;;;;;;;;5033477;28;20172;-45
2023/11/20 02:57:03;;;;;;;222.57;58.60;;;;;;;;;;5019145;28;20571;-45
2023/11/20 02:59:29;;;;;;;222.88;59.25;;;;;;;;;;5024990;28;20675;-45
2023/11/20 03:01:55;;;;;;;217.33;54.00;;;;;;;;;;5027452;28;20184;-44
2023/11/20 03:04:21;;;;;;;221.45;56.90;;;;;;;;;;5017014;28;20407;-44
2023/11/20 03:06:47;;;;;;;223.48;57.75;;;;;;;;;;5033952;28;20245;-44
2023/11/20 03:09:13;;;;;;;221.87;58.57;;;;;;;;;;5015584;28;20182;-44
2023/11/20 03:11:39;;;;;;;224.73;61.17;;;;;;;;;;5028540;28;20402;-45
2023/11/20 03:14:05;;;;;;;218.17;57.07;;;;;;;;;;5023625;28;20410;-44
2023/11/20 03:16:31;;;;;;;223.67;58.87;;;;;;;;;;5020231;28;20508;-45
2023/11/20 03:18:57;;;;;;;222.27;56.30;;;;;;;;;;5030649;28;20399;-45
2023/11/20 03:21:24;;;;;;;221.02;57.08;;;;;;;;;;5014152;28;20225;-44
2023/11/20 03:23:49;;;;;;;219.88;55.70;;;;;;;;;;5031916;28;20177;-45
2023/11/20 03:26:21;;;;;;;221.87;60.20;;;;;;;;;;5019455;28;20208;-45
2023/11/20 03:28:47;;;;;;;222.57;58.80;;;;;;;;;;5024241;28;20446;-45
2023/11/20 03:31:14;;;;;;;218.20;55.20;;;;;;;;;;5027237;28;20637;-45
2023/11/20 03:33:40;;;;;;;218.50;57.03;;;;;;;;;;5013630;28;20835;-45
2023/11/20 03:36:06;;;;;;;221.67;58.57;;;;;;;;;;5013614;28;20269;-45
2023/11/20 03:38:32;;;;;;;220.18;55.20;;;;;;;;;;4995509;28;20466;-46
2023/11/20 03:40:58;;;;;;;224.20;59.70;;;;;;;;;;5007936;28;20207;-44
2023/11/20 03:43:25;;;;;;;220.27;56.60;;;;;;;;;;5003576;28;20505;-45
2023/11/20 03:45:51;;;;;;;222.15;58.03;;;;;;;;;;4999759;28;20417;-45
2023/11/20 03:48:18;;;;;;;223.67;59.43;;;;;;;;;;5011395;28;20258;-45
2023/11/20 03:50:44;;;;;;;223.88;59.50;;;;;;;;;;4994050;28;20843;-45
2023/11/20 03:53:10;;;;;;;218.70;54.63;;;;;;;;;;5011744;28;20216;-45
2023/11/20 03:55:36;;;;;;;224.90;59.03;;;;;;;;;;4999299;28;20431;-45
2023/11/20 03:58:02;;;;;;;220.82;56.33;;;;;;;;;;5003519;28;20352;-45
2023/11/20 04:00:29;;;;;;;220.05;55.35;;;;;;;;;;5007634;28;20202;-45
2023/11/20 04:02:55;;;;;;;222.70;58.40;;;;;;;;;;4995452;28;20645;-45
2023/11/20 04:05:22;;;;;;;221.90;57.38;;;;;;;;;;5013292;28;20176;-45
2023/11/20 04:07:48;;;;;;;224.60;59.97;;;;;;;;;;4995459;28;20204;-45
2023/11/20 04:10:14;;;;;;;220.43;55.78;;;;;;;;;;5006945;28;20663;-44
2023/11/20 04:12:40;;;;;;;221.88;57.45;;;;;;;;;;5003579;28;20204;-44
2023/11/20 04:15:06;;;;;;;223.23;59.88;;;;;;;;;;4998874;28;20636;-45
2023/11/20 04:17:33;;;;;;;223.85;59.60;;;;;;;;;;5011267;28;20276;-44
2023/11/20 04:19:59;;;;;;;219.38;56.35;;;;;;;;;;4993441;28;20279;-45
2023/11/20 04:22:25;;;;;;;220.00;56.60;;;;;;;;;;5010390;28;20609;-44
2023/11/20 04:24:51;;;;;;;222.20;58.90;;;;;;;;;;5012296;28;20408;-45
2023/11/20 04:27:18;;;;;;;222.23;58.17;;;;;;;;;;5003346;28;20535;-44
2023/11/20 04:29:44;;;;;;;219.73;54.13;;;;;;;;;;4997976;28;20621;-44
2023/11/20 04:32:10;;;;;;;220.70;54.50;;;;;;;;;;5011649;28;20418;-45
2023/11/20 04:34:36;;;;;;;221.90;58.70;;;;;;;;;;4993265;28;20412;-45
2023/11/20 04:37:02;;;;;;;223.45;58.35;;;;;;;;;;5009493;28;20495;-45
2023/11/20 04:39:28;;;;;;;222.27;58.37;;;;;;;;;;5000164;28;20228;-45
2023/11/20 04:41:53;;;;;;;220.40;55.63;;;;;;;;;;5001448;28;20433;-45
2023/11/20 04:44:19;;;;;;;224.00;59.80;;;;;;;;;;5007972;28;20456;-44
2023/11/20 04:46:45;;;;;;;222.17;58.00;;;;;;;;;;4993091;28;20430;-44
2023/11/20 04:49:12;;;;;;;222.13;58.13;;;;;;;;;;5012440;28;20414;-44
2023/11/20 04:51:38;;;;;;;222.55;58.70;;;;;;;;;;4996182;28;20420;-45
2023/11/20 04:54:04;;;;;;;221.00;57.55;;;;;;;;;;5004972;28;20183;-44
2023/11/20 04:56:32;;;;;;;222.33;58.80;;;;;;;;;;5003768;28;20205;-45
2023/11/20 04:58:58;;;;;;;215.98;54.10;;;;;;;;;;4996925;28;20411;-45
2023/11/20 05:01:24;;;;;;;221.87;58.73;;;;;;;;;;5011803;28;20212;-45
2023/11/20 05:03:50;;;;;;;221.45;56.15;;;;;;;;;;4992863;28;20404;-45
2023/11/20 05:06:16;;;;;;;220.83;57.77;;;;;;;;;;5008142;28;20566;-45
2023/11/20 05:08:42;;;;;;;222.37;58.70;;;;;;;;;;5000140;28;20471;-45
2023/11/20 05:11:08;;;;;;;223.00;57.90;;;;;;;;;;5000265;28;20477;-45
2023/11/20 05:13:34;;;;;;;219.07;55.50;;;;;;;;;;5008299;28;20182;-45
2023/11/20 05:16:00;;;;;;;216.93;56.93;;;;;;;;;;4992316;28;20497;-45
2023/11/20 05:18:26;;;;;;;209.68;56.00;;;;;;;;;;5011790;28;20400;-44
2023/11/20 05:20:52;;;;;;;220.63;56.67;;;;;;;;;;4996379;28;20206;-45
2023/11/20 05:23:18;;;;;;;227.27;61.37;;;;;;;;;;5006765;28;20418;-45
2023/11/20 05:25:44;;;;;;;221.47;57.40;;;;;;;;;;5004397;28;20449;-45
2023/11/20 05:28:10;;;;;;;220.80;56.50;;;;;;;;;;4995221;28;20425;-45
2023/11/20 05:30:37;;;;;;;222.97;59.07;;;;;;;;;;5012078;28;20417;-45
2023/11/20 05:33:03;;;;;;;223.80;59.70;;;;;;;;;;4992727;28;20425;-44
2023/11/20 05:35:29;;;;;;;228.17;61.23;;;;;;;;;;5006977;28;20174;-45
2023/11/20 05:37:55;;;;;;;221.57;55.88;;;;;;;;;;5000660;28;20435;-44
2023/11/20 05:40:21;;;;;;;224.18;59.63;;;;;;;;;;4998980;28;20201;-44
2023/11/20 05:42:47;;;;;;;221.87;55.90;;;;;;;;;;5011707;28;20188;-45
2023/11/20 05:45:14;;;;;;;221.75;57.03;;;;;;;;;;4996314;28;20403;-45
2023/11/20 05:47:39;;;;;;;222.35;56.67;;;;;;;;;;5014401;28;20566;-45
2023/11/20 05:50:06;;;;;;;221.40;55.90;;;;;;;;;;5001035;28;20176;-45
2023/11/20 05:52:32;;;;;;;222.18;56.85;;;;;;;;;;5006567;28;20416;-45
2023/11/20 05:54:59;;;;;;;219.82;54.55;;;;;;;;;;5009066;28;20268;-45
2023/11/20 05:57:27;;;;;;;223.50;58.20;;;;;;;;;;4998268;28;20193;-44
2023/11/20 05:59:53;;;;;;;223.23;58.80;;;;;;;;;;5015672;28;20189;-45
2023/11/20 06:02:19;;;;;;;217.37;57.13;;;;;;;;;;4996961;28;20202;-45
2023/11/20 06:04:45;;;;;;;221.50;59.27;;;;;;;;;;5010170;28;20466;-45
2023/11/20 06:07:11;;;;;;;210.20;53.03;;;;;;;;;;5004656;28;20451;-45
2023/11/20 06:09:38;;;;;;;220.88;55.97;;;;;;;;;;5002108;28;20469;-45
2023/11/20 06:12:04;;;;;;;224.13;58.28;;;;;;;;;;5012891;28;20854;-44
2023/11/20 06:14:30;;;;;;;223.50;58.40;;;;;;;;;;4995873;28;20645;-45
2023/11/20 06:16:56;;;;;;;222.10;56.40;;;;;;;;;;5013562;28;20208;-44
2023/11/20 06:19:26;;;;;;;223.20;58.37;;;;;;;;;;5000854;28;20452;-45
2023/11/20 06:21:52;;;;;;;220.25;55.33;;;;;;;;;;5005972;28;20511;-44
2023/11/20 06:24:18;;;;;;;221.20;55.67;;;;;;;;;;5014634;28;20710;-45
2023/11/20 06:26:44;;;;;;;221.17;56.00;;;;;;;;;;5012380;28;20964;-45
2023/11/20 06:29:10;;;;;;;207.13;54.90;;;;;;;;;;4995398;28;20418;-45
2023/11/20 06:31:36;;;;;;;220.23;54.90;;;;;;;;;;5013432;28;20947;-44
2023/11/20 06:34:03;;;;;;;218.57;56.60;;;;;;;;;;5000903;28;20178;-45
2023/11/20 06:36:29;;;;;;;223.65;58.70;;;;;;;;;;5005163;28;20185;-44
2023/11/20 06:38:55;;;;;;;221.88;56.17;;;;;;;;;;5008646;28;20687;-45
2023/11/20 06:41:22;;;;;;;213.75;55.88;;;;;;;;;;4997053;28;20207;-44
2023/11/20 06:43:48;;;;;;;214.68;58.00;;;;;;;;;;5014969;28;20222;-44
2023/11/20 06:46:18;;;;;;;133.82;36.75;;;;;;;;;;4996149;28;20191;-46
2023/11/20 06:48:44;;;;;;;207.77;52.03;;;;;;;;;;5009314;28;20549;-44
2023/11/20 06:51:12;;;;;;;220.07;55.38;;;;;;;;;;5004344;28;20263;-44
2023/11/20 06:53:38;;;;;;;222.25;57.70;;;;;;;;;;5001308;28;20185;-45
2023/11/20 06:56:04;;;;;;;224.40;58.13;;;;;;;;;;5011844;28;20187;-45
2023/11/20 06:58:33;;;;;;;223.18;58.83;;;;;;;;;;4995052;28;20226;-45
2023/11/20 07:01:00;;;;;;;226.38;59.97;;;;;;;;;;5013406;28;20566;-45
2023/11/20 07:03:26;;;;;;;221.75;55.10;;;;;;;;;;4999884;28;20259;-45
2023/11/20 07:05:53;;;;;;;233.13;61.60;;;;;;;;;;5005160;28;20220;-46
2023/11/20 07:08:21;;;;;;;222.77;56.47;;;;;;;;;;5020168;28;20432;-45
2023/11/20 07:10:48;;;;;;;222.98;56.33;;;;;;;;;;5022438;28;20184;-44
2023/11/20 07:13:14;;;;;;;222.40;56.42;;;;;;;;;;5022428;28;20187;-44
2023/11/20 07:15:39;;;;;;;224.88;58.67;;;;;;;;;;5025548;28;20175;-45
2023/11/20 07:18:08;;;;;;;220.77;54.73;;;;;;;;;;5026652;28;20212;-45
2023/11/20 07:20:35;;;;;;;222.23;55.95;;;;;;;;;;5021534;28;20490;-45
2023/11/20 07:23:03;;;;;;;220.25;53.95;;;;;;;;;;5022188;28;20652;-45
2023/11/20 07:25:36;;;;;;;228.32;59.85;;;;;;;;;;5025291;28;20164;-45
2023/11/20 07:28:02;;;;;;;222.85;56.80;;;;;;;;;;5022929;28;20224;-45
2023/11/20 07:30:30;;;;;;;221.80;55.15;;;;;;;;;;5025477;28;20192;-45
2023/11/20 07:32:56;;;;;;;222.02;56.35;;;;;;;;;;5023906;28;20682;-45
2023/11/20 07:35:22;;;;;;;201.90;53.17;;;;;;;;;;5017799;28;20188;-45
2023/11/20 07:37:48;;;;;;;226.00;59.83;;;;;;;;;;5025221;28;20878;-44
2023/11/20 07:40:15;;;;;;;223.27;58.00;;;;;;;;;;5022747;28;20225;-45
2023/11/20 07:42:42;;;;;;;221.05;55.78;;;;;;;;;;5023575;28;20405;-45
2023/11/20 07:45:08;;;;;;;223.70;58.05;;;;;;;;;;5022828;28;20184;-45
2023/11/20 07:47:34;;;;;;;226.27;60.20;;;;;;;;;;5022517;28;20192;-45
2023/11/20 07:50:00;;;;;;;223.02;57.90;;;;;;;;;;5022534;28;20265;-45
2023/11/20 07:52:26;;;;;;;221.23;56.57;;;;;;;;;;5021419;28;20613;-45
2023/11/20 07:54:52;;;;;;;222.67;56.33;;;;;;;;;;5024807;28;20459;-45
2023/11/20 07:57:20;;;;;;;225.13;59.58;;;;;;;;;;5020383;28;20977;-44
2023/11/20 07:59:47;;;;;;;222.13;56.30;;;;;;;;;;5024429;28;20192;-45
2023/11/20 08:02:13;;;;;;;223.02;56.85;;;;;;;;;;5032448;28;20200;-44
2023/11/20 08:04:39;;;;;;;220.90;56.03;;;;;;;;;;5023898;28;20288;-44
2023/11/20 08:07:05;;;;;;;225.25;57.92;;;;;;;;;;5016669;28;21250;-44
2023/11/20 08:09:31;;;;;;;220.93;55.70;;;;;;;;;;5032512;28;20221;-45
2023/11/20 08:11:57;;;;;;;224.13;61.30;;;;;;;;;;4993650;28;20400;-44
2023/11/20 08:14:23;;;;;;;227.23;63.27;;;;;;;;;;5025362;28;20572;-45
2023/11/20 08:16:49;;;;;;;222.73;57.67;;;;;;;;;;5020596;28;20431;-45
2023/11/20 08:19:15;;;;;;;226.97;62.53;;;;;;;;;;5020151;28;20410;-45
2023/11/20 08:21:41;;;;;;;226.38;61.97;;;;;;;;;;5027953;28;20400;-44
2023/11/20 08:24:07;;;;;;;223.55;59.33;;;;;;;;;;5012926;28;20191;-45
2023/11/20 08:26:34;;;;;;;225.57;60.72;;;;;;;;;;5012206;28;20600;-45
2023/11/20 08:29:00;;;;;;;226.60;62.10;;;;;;;;;;4997041;28;20251;-44
2023/11/20 08:31:26;;;;;;;226.52;62.28;;;;;;;;;;5004507;28;20681;-44
2023/11/20 08:33:52;;;;;;;224.80;59.72;;;;;;;;;;5005584;28;20276;-44
2023/11/20 08:36:18;;;;;;;225.27;61.97;;;;;;;;;;4995909;28;20299;-45
2023/11/20 08:38:44;;;;;;;225.83;62.00;;;;;;;;;;5012747;28;20583;-45
2023/11/20 08:41:09;;;;;;;231.73;63.03;;;;;;;;;;4993376;28;20468;-45
2023/11/20 08:43:36;;;;;;;227.73;61.93;;;;;;;;;;4997453;28;20423;-45
2023/11/20 08:46:02;;;;;;;225.85;60.40;;;;;;;;;;5003311;28;20480;-45
2023/11/20 08:48:27;;;;;;;224.60;61.20;;;;;;;;;;5005676;28;20659;-45
2023/11/20 08:50:54;;;;;;;227.57;62.87;;;;;;;;;;4995303;28;20249;-44
2023/11/20 08:53:21;;;;;;;225.02;58.63;;;;;;;;;;5011416;28;20485;-44
2023/11/20 08:55:48;;;;;;;230.23;65.88;;;;;;;;;;4993405;28;20180;-45
2023/11/20 08:58:14;;;;;;;230.43;62.95;;;;;;;;;;5007019;28;20564;-45
2023/11/20 09:00:40;;;;;;;228.73;64.05;;;;;;;;;;5001581;28;20197;-44
2023/11/20 09:03:06;;;;;;;232.17;64.03;;;;;;;;;;4999019;28;20168;-44
2023/11/20 09:05:32;;;;;;;237.77;73.10;;;;;;;;;;5004990;28;20512;-45
2023/11/20 09:07:58;;;;;;;238.43;76.00;;;;;;;;;;5011722;28;20439;-44
2023/11/20 09:10:24;;;;;;;235.20;71.47;;;;;;;;;;4994077;28;20503;-45
2023/11/20 09:12:50;;;;;;;232.47;67.60;;;;;;;;;;5006124;28;20180;-45
2023/11/20 09:15:16;;;;;;;233.95;69.85;;;;;;;;;;5002169;28;20482;-45
2023/11/20 09:17:42;;;;;;;234.63;70.38;;;;;;;;;;4997144;28;20203;-45
2023/11/20 09:20:15;;;;;;;240.10;78.50;;;;;;;;;;5009877;28;20192;-45
2023/11/20 09:22:41;;;;;;;238.97;72.80;;;;;;;;;;5002367;28;20416;-45
2023/11/20 09:25:07;;;;;;;243.10;80.93;;;;;;;;;;5011568;28;20419;-46
2023/11/20 09:27:33;;;;;;;240.15;75.75;;;;;;;;;;4996997;28;20796;-45
2023/11/20 09:30:00;;;;;;;245.03;86.30;;;;;;;;;;5002628;28;20194;-45
2023/11/20 09:32:27;;;;;;;240.37;78.83;;;;;;;;;;5005257;28;20445;-45
2023/11/20 09:34:54;;;;;;;239.87;78.80;;;;;;;;;;4994599;28;20500;-46
2023/11/20 09:37:20;;;;;;;240.57;79.13;;;;;;;;;;5011545;28;20426;-45
2023/11/20 09:39:46;;;;;;;241.87;80.53;;;;;;;;;;4993438;28;20201;-45
2023/11/20 09:42:14;;;;;;;241.87;81.57;;;;;;;;;;5006334;28;20431;-45
2023/11/20 09:44:41;;;;;;;240.60;80.03;;;;;;;;;;5001195;28;20975;-45
2023/11/20 09:47:10;;;;;;;240.17;77.13;;;;;;;;;;4998404;28;20793;-44
2023/11/20 09:49:37;;;;;;;235.18;71.70;;;;;;;;;;5008485;28;20554;-45
2023/11/20 09:52:05;;;;;;;242.53;82.30;;;;;;;;;;4992174;28;20648;-45
2023/11/20 09:54:34;;;;;;;238.55;74.10;;;;;;;;;;5011004;28;20437;-45
2023/11/20 09:57:00;;;;;;;237.13;73.20;;;;;;;;;;4995928;28;20196;-45
2023/11/20 09:59:26;;;;;;;234.97;69.90;;;;;;;;;;5002998;28;20745;-45
2023/11/20 10:01:52;;;;;;;235.37;73.43;;;;;;;;;;5004191;28;20411;-45
2023/11/20 10:04:19;;;;;;;237.03;71.43;;;;;;;;;;4994982;28;20486;-44
2023/11/20 10:06:46;;;;;;;241.67;80.47;;;;;;;;;;5011292;28;20466;-45
2023/11/20 10:09:13;;;;;;;238.55;76.88;;;;;;;;;;4992112;28;20412;-46
2023/11/20 10:11:41;;;;;;;238.77;77.33;;;;;;;;;;5007111;28;20234;-45
2023/11/20 10:14:07;;;;;;;237.90;76.17;;;;;;;;;;4999865;28;20849;-45
2023/11/20 10:16:35;;;;;;;238.67;75.37;;;;;;;;;;4998776;28;20436;-45
2023/11/20 10:19:02;;;;;;;234.70;74.47;;;;;;;;;;5007638;28;20411;-45
2023/11/20 10:21:29;;;;;;;237.30;75.40;;;;;;;;;;4991786;28;20209;-45
2023/11/20 10:23:55;;;;;;;234.55;74.13;;;;;;;;;;5011236;28;20172;-45
2023/11/20 10:26:24;;;;;;;232.98;68.72;;;;;;;;;;4995366;28;20235;-45
2023/11/20 10:28:51;;;;;;;237.30;77.15;;;;;;;;;;5005719;28;20274;-45
2023/11/20 10:31:17;;;;;;;233.95;74.63;;;;;;;;;;5007023;28;20177;-45
2023/11/20 10:33:43;;;;;;;233.73;70.80;;;;;;;;;;4999241;28;20231;-45
2023/11/20 10:36:13;;;;;;;228.63;63.78;;;;;;;;;;5014255;28;20191;-44
2023/11/20 10:38:39;;;;;;;233.65;68.60;;;;;;;;;;4995272;28;20172;-45
2023/11/20 10:41:08;;;;;;;229.35;65.85;;;;;;;;;;5011064;28;20198;-45
2023/11/20 10:43:36;;;;;;;231.73;68.78;;;;;;;;;;5002073;28;20238;-45
2023/11/20 10:46:02;;;;;;;235.40;72.93;;;;;;;;;;5003467;28;20180;-44
2023/11/20 10:48:34;;;;;;;229.77;67.50;;;;;;;;;;5009795;28;20196;-45
2023/11/20 10:51:04;;;;;;;230.93;66.03;;;;;;;;;;4996352;28;20836;-45
2023/11/20 10:53:31;;;;;;;228.38;61.85;;;;;;;;;;5014886;28;20175;-45
2023/11/20 10:55:57;;;;;;;233.90;67.68;;;;;;;;;;4994991;28;20190;-45
2023/11/20 10:58:27;;;;;;;234.27;67.28;;;;;;;;;;5006626;28;20176;-44
2023/11/20 11:00:54;;;;;;;235.30;69.93;;;;;;;;;;5002646;28;20262;-46
2023/11/20 11:03:20;;;;;;;234.95;71.13;;;;;;;;;;4999594;28;20510;-45
2023/11/20 11:05:47;;;;;;;240.07;75.47;;;;;;;;;;5010230;28;20164;-45
2023/11/20 11:08:14;;;;;;;238.50;76.20;;;;;;;;;;4994506;28;20396;-46
2023/11/20 11:10:41;;;;;;;239.10;76.10;;;;;;;;;;5012643;28;20418;-45
2023/11/20 11:13:10;;;;;;;238.47;78.43;;;;;;;;;;5000152;28;20859;-45
2023/11/20 11:15:36;;;;;;;240.40;77.37;;;;;;;;;;5004856;28;20454;-45
2023/11/20 11:18:06;;;;;;;233.40;71.67;;;;;;;;;;5007482;28;20432;-45
2023/11/20 11:20:50;;;;;;;236.97;71.73;;;;;;;;;;4997227;28;20463;-45
2023/11/20 11:23:19;;;;;;;238.07;76.87;;;;;;;;;;5013587;28;20903;-45
2023/11/20 11:26:04;;;;;;;237.18;73.82;;;;;;;;;;5013942;28;20403;-44
2023/11/20 11:28:30;;;;;;;230.43;68.00;;;;;;;;;;4994415;28;20239;-45
2023/11/20 11:30:57;;;;;;;233.20;68.90;;;;;;;;;;5010045;28;20188;-45
2023/11/20 11:33:46;;;;;;;233.02;70.25;;;;;;;;;;5001875;28;20440;-45
2023/11/20 11:36:15;;;;;;;231.43;67.90;;;;;;;;;;5004966;28;20745;-45
2023/11/20 11:38:50;;;;;;;232.40;67.97;;;;;;;;;;5006176;28;20661;-45
2023/11/20 11:41:16;;;;;;;231.63;69.03;;;;;;;;;;4997873;28;20277;-44
2023/11/20 11:43:45;;;;;;;234.17;71.10;;;;;;;;;;5013360;28;20164;-45
2023/11/20 11:46:11;;;;;;;228.55;65.55;;;;;;;;;;4996818;28;20512;-45
2023/11/20 11:48:38;;;;;;;231.32;66.75;;;;;;;;;;5005037;28;20259;-45
2023/11/20 11:51:05;;;;;;;232.32;68.63;;;;;;;;;;5012969;28;20184;-44
2023/11/20 11:53:31;;;;;;;233.43;71.70;;;;;;;;;;5005070;28;20358;-44
2023/11/20 11:56:03;;;;;;;234.63;69.30;;;;;;;;;;4998115;28;20373;-45
2023/11/20 11:58:36;;;;;;;231.10;67.35;;;;;;;;;;5011691;28;20178;-45
2023/11/20 12:01:16;;;;;;;228.93;65.55;;;;;;;;;;5006702;28;20250;-44
2023/11/20 12:03:42;;;;;;;235.30;74.32;;;;;;;;;;5013188;28;20179;-45
2023/11/20 12:06:09;;;;;;;231.82;69.82;;;;;;;;;;5012333;28;20615;-45
2023/11/20 12:08:37;;;;;;;231.90;70.07;;;;;;;;;;5001000;28;20194;-44
2023/11/20 12:11:03;;;;;;;231.40;67.72;;;;;;;;;;5003333;28;20171;-45
2023/11/20 12:13:29;;;;;;;234.40;70.95;;;;;;;;;;5008576;28;20177;-45
2023/11/20 12:16:13;;;;;;;235.85;72.88;;;;;;;;;;4993081;28;20218;-44
2023/11/20 12:18:39;;;;;;;228.38;64.45;;;;;;;;;;5013107;28;20236;-45
2023/11/20 12:21:06;;;;;;;232.03;69.57;;;;;;;;;;5008506;28;20703;-44
2023/11/20 12:23:36;;;;;;;231.90;68.90;;;;;;;;;;5010907;28;20464;-44
2023/11/20 12:26:04;;;;;;;235.27;70.95;;;;;;;;;;5002209;28;20500;-44
2023/11/20 12:28:33;;;;;;;235.57;70.90;;;;;;;;;;5007055;28;20172;-45
2023/11/20 12:31:09;;;;;;;243.00;76.57;;;;;;;;;;5006016;28;20555;-44
2023/11/20 12:33:38;;;;;;;234.27;71.20;;;;;;;;;;5004666;28;20658;-45
2023/11/20 12:36:05;;;;;;;231.55;66.35;;;;;;;;;;5008421;28;20183;-45
2023/11/20 12:38:31;;;;;;;234.73;74.30;;;;;;;;;;5011320;28;20175;-45
2023/11/20 12:41:05;;;;;;;227.90;64.07;;;;;;;;;;5007871;28;20287;-45
2023/11/20 12:43:32;;;;;;;230.63;73.32;;;;;;;;;;5010320;28;20222;-45
2023/11/20 12:46:00;;;;;;;236.45;78.03;;;;;;;;;;5015442;28;20186;-45
2023/11/20 12:48:27;;;;;;;235.98;76.05;;;;;;;;;;5018464;28;20178;-44
2023/11/20 12:50:53;;;;;;;234.13;72.85;;;;;;;;;;5008560;28;20254;-45
2023/11/20 12:53:20;;;;;;;239.85;76.38;;;;;;;;;;4993042;28;20184;-45
2023/11/20 12:55:47;;;;;;;236.90;77.30;;;;;;;;;;5005844;28;20717;-45
2023/11/20 12:58:13;;;;;;;234.07;72.07;;;;;;;;;;5001797;28;20262;-44
2023/11/20 13:00:42;;;;;;;236.60;75.13;;;;;;;;;;4998186;28;20239;-45
2023/11/20 13:03:11;;;;;;;235.10;73.57;;;;;;;;;;5009602;28;21239;-45
2023/11/20 13:05:37;;;;;;;236.40;73.60;;;;;;;;;;4992205;28;20535;-45
2023/11/20 13:08:04;;;;;;;233.83;73.20;;;;;;;;;;5010490;28;20756;-45
2023/11/20 13:10:31;;;;;;;235.90;73.93;;;;;;;;;;4997444;28;20499;-45
2023/11/20 13:13:13;;;;;;;235.77;74.55;;;;;;;;;;5002592;28;20650;-44
2023/11/20 13:15:39;;;;;;;236.55;76.13;;;;;;;;;;5003049;28;20201;-45
2023/11/20 13:18:06;;;;;;;235.60;73.87;;;;;;;;;;4996596;28;20208;-45
2023/11/20 13:20:44;;;;;;;234.05;73.00;;;;;;;;;;5010833;28;20505;-45
2023/11/20 13:23:18;;;;;;;237.85;78.35;;;;;;;;;;5006747;28;20263;-44
2023/11/20 13:25:45;;;;;;;237.13;77.97;;;;;;;;;;5010956;28;20182;-45
2023/11/20 13:28:13;;;;;;;236.27;77.57;;;;;;;;;;4996275;28;20581;-45
2023/11/20 13:30:55;;;;;;;232.73;70.88;;;;;;;;;;5003418;28;20780;-45
2023/11/20 13:33:24;;;;;;;237.70;79.53;;;;;;;;;;5002017;28;20251;-45
2023/11/20 13:35:51;;;;;;;239.40;80.17;;;;;;;;;;4997359;28;20411;-45
2023/11/20 13:38:17;;;;;;;240.77;76.47;;;;;;;;;;5009943;28;20522;-45
2023/11/20 13:40:42;;;;;;;241.50;78.23;;;;;;;;;;4991929;28;20946;-45
2023/11/20 13:43:09;;;;;;;243.53;82.30;;;;;;;;;;5009262;28;20800;-46
2023/11/20 13:45:36;;;;;;;248.03;83.70;;;;;;;;;;4997801;28;20480;-45
2023/11/20 13:48:03;;;;;;;247.80;85.97;;;;;;;;;;5001279;28;20871;-45
2023/11/20 13:50:29;;;;;;;245.13;86.78;;;;;;;;;;5005695;28;20415;-45
2023/11/20 13:52:56;;;;;;;250.07;90.13;;;;;;;;;;4993196;28;20295;-45
2023/11/20 13:55:22;;;;;;;246.50;85.87;;;;;;;;;;5011015;28;20444;-45
2023/11/20 13:57:48;;;;;;;239.63;78.37;;;;;;;;;;4993565;28;20437;-45
2023/11/20 14:00:21;;;;;;;240.35;80.50;;;;;;;;;;5005125;28;21003;-45
2023/11/20 14:02:47;;;;;;;246.40;88.07;;;;;;;;;;5000279;28;20208;-44